sensor_id;sensor_type;location;lat;lon;timestamp;P1;durP1;ratioP1;P2;durP2;ratioP2
17890;SDS011;9071;48.220;14.480;2023-08-08T00:01:08;3.87;;;3.27;;
17890;SDS011;9071;48.220;14.480;2023-08-08T00:06:12;4.30;;;3.00;;
17890;SDS011;9071;48.220;14.480;2023-08-08T00:11:14;6.03;;;3.50;;
17890;SDS011;9071;48.220;14.480;2023-08-08T00:16:16;4.10;;;3.40;;
17890;SDS011;9071;48.220;14.480;2023-08-08T00:21:19;4.07;;;3.20;;
17890;SDS011;9071;48.220;14.480;2023-08-08T00:26:22;3.67;;;2.90;;
17890;SDS011;9071;48.220;14.480;2023-08-08T00:31:24;3.77;;;2.73;;
17890;SDS011;9071;48.220;14.480;2023-08-08T00:36:28;6.53;;;3.73;;
17890;SDS011;9071;48.220;14.480;2023-08-08T00:41:30;4.73;;;3.00;;
17890;SDS011;9071;48.220;14.480;2023-08-08T00:46:32;5.90;;;3.57;;
17890;SDS011;9071;48.220;14.480;2023-08-08T00:51:35;5.87;;;3.53;;
17890;SDS011;9071;48.220;14.480;2023-08-08T00:56:37;4.10;;;3.60;;
17890;SDS011;9071;48.220;14.480;2023-08-08T01:01:39;5.50;;;3.67;;
17890;SDS011;9071;48.220;14.480;2023-08-08T01:06:44;4.73;;;3.57;;
17890;SDS011;9071;48.220;14.480;2023-08-08T01:11:52;3.93;;;3.27;;
17890;SDS011;9071;48.220;14.480;2023-08-08T01:16:55;6.77;;;3.73;;
17890;SDS011;9071;48.220;14.480;2023-08-08T01:22:01;5.67;;;3.60;;
17890;SDS011;9071;48.220;14.480;2023-08-08T01:27:07;6.23;;;4.00;;
17890;SDS011;9071;48.220;14.480;2023-08-08T01:32:09;4.50;;;3.47;;
17890;SDS011;9071;48.220;14.480;2023-08-08T01:37:13;5.27;;;3.13;;
17890;SDS011;9071;48.220;14.480;2023-08-08T01:42:20;4.53;;;2.97;;
17890;SDS011;9071;48.220;14.480;2023-08-08T01:47:24;4.13;;;3.47;;
17890;SDS011;9071;48.220;14.480;2023-08-08T01:52:26;6.37;;;3.87;;
17890;SDS011;9071;48.220;14.480;2023-08-08T01:57:30;4.40;;;3.20;;
17890;SDS011;9071;48.220;14.480;2023-08-08T02:02:32;4.13;;;3.50;;
17890;SDS011;9071;48.220;14.480;2023-08-08T02:07:35;6.07;;;3.80;;
17890;SDS011;9071;48.220;14.480;2023-08-08T02:12:39;6.73;;;4.73;;
17890;SDS011;9071;48.220;14.480;2023-08-08T02:17:41;7.07;;;4.57;;
17890;SDS011;9071;48.220;14.480;2023-08-08T02:22:43;8.10;;;4.83;;
17890;SDS011;9071;48.220;14.480;2023-08-08T02:27:46;6.53;;;5.00;;
17890;SDS011;9071;48.220;14.480;2023-08-08T02:32:48;9.47;;;5.33;;
17890;SDS011;9071;48.220;14.480;2023-08-08T02:37:51;6.63;;;5.17;;
17890;SDS011;9071;48.220;14.480;2023-08-08T02:42:54;8.97;;;4.83;;
17890;SDS011;9071;48.220;14.480;2023-08-08T02:47:56;6.60;;;4.90;;
17890;SDS011;9071;48.220;14.480;2023-08-08T02:52:58;8.47;;;5.53;;
17890;SDS011;9071;48.220;14.480;2023-08-08T02:58:02;8.87;;;5.20;;
17890;SDS011;9071;48.220;14.480;2023-08-08T03:03:04;6.50;;;5.00;;
17890;SDS011;9071;48.220;14.480;2023-08-08T03:08:06;9.53;;;6.00;;
17890;SDS011;9071;48.220;14.480;2023-08-08T03:13:10;9.63;;;6.40;;
17890;SDS011;9071;48.220;14.480;2023-08-08T03:18:12;9.47;;;6.37;;
17890;SDS011;9071;48.220;14.480;2023-08-08T03:23:14;7.73;;;6.30;;
17890;SDS011;9071;48.220;14.480;2023-08-08T03:28:17;10.10;;;6.50;;
17890;SDS011;9071;48.220;14.480;2023-08-08T03:33:19;8.37;;;6.07;;
17890;SDS011;9071;48.220;14.480;2023-08-08T03:38:21;8.80;;;6.20;;
17890;SDS011;9071;48.220;14.480;2023-08-08T03:43:25;11.23;;;6.23;;
17890;SDS011;9071;48.220;14.480;2023-08-08T03:48:27;9.23;;;6.83;;
17890;SDS011;9071;48.220;14.480;2023-08-08T03:53:29;8.87;;;6.83;;
17890;SDS011;9071;48.220;14.480;2023-08-08T03:58:32;9.63;;;6.97;;
17890;SDS011;9071;48.220;14.480;2023-08-08T04:03:35;9.57;;;7.70;;
17890;SDS011;9071;48.220;14.480;2023-08-08T04:08:37;10.10;;;6.80;;
17890;SDS011;9071;48.220;14.480;2023-08-08T04:13:40;9.73;;;6.60;;
17890;SDS011;9071;48.220;14.480;2023-08-08T04:18:42;8.23;;;6.57;;
17890;SDS011;9071;48.220;14.480;2023-08-08T04:23:44;8.97;;;6.50;;
17890;SDS011;9071;48.220;14.480;2023-08-08T04:28:48;9.60;;;7.80;;
17890;SDS011;9071;48.220;14.480;2023-08-08T04:33:50;10.40;;;8.03;;
17890;SDS011;9071;48.220;14.480;2023-08-08T04:38:52;13.00;;;7.93;;
17890;SDS011;9071;48.220;14.480;2023-08-08T04:43:56;9.43;;;7.30;;
17890;SDS011;9071;48.220;14.480;2023-08-08T04:48:58;12.50;;;7.53;;
17890;SDS011;9071;48.220;14.480;2023-08-08T04:54:00;10.33;;;7.40;;
17890;SDS011;9071;48.220;14.480;2023-08-08T04:59:03;12.33;;;6.93;;
17890;SDS011;9071;48.220;14.480;2023-08-08T05:04:05;10.80;;;6.50;;
17890;SDS011;9071;48.220;14.480;2023-08-08T05:09:08;9.80;;;6.33;;
17890;SDS011;9071;48.220;14.480;2023-08-08T05:14:12;10.43;;;6.30;;
17890;SDS011;9071;48.220;14.480;2023-08-08T05:19:14;7.37;;;6.57;;
17890;SDS011;9071;48.220;14.480;2023-08-08T05:24:16;9.23;;;8.10;;
17890;SDS011;9071;48.220;14.480;2023-08-08T05:29:20;10.57;;;6.00;;
17890;SDS011;9071;48.220;14.480;2023-08-08T05:34:23;8.87;;;5.23;;
17890;SDS011;9071;48.220;14.480;2023-08-08T05:39:25;8.13;;;5.50;;
17890;SDS011;9071;48.220;14.480;2023-08-08T05:44:29;8.40;;;5.67;;
17890;SDS011;9071;48.220;14.480;2023-08-08T05:49:31;10.87;;;6.57;;
17890;SDS011;9071;48.220;14.480;2023-08-08T05:54:33;7.60;;;5.63;;
17890;SDS011;9071;48.220;14.480;2023-08-08T05:59:36;15.07;;;6.00;;
17890;SDS011;9071;48.220;14.480;2023-08-08T06:04:38;9.07;;;5.07;;
17890;SDS011;9071;48.220;14.480;2023-08-08T06:09:40;8.93;;;5.00;;
17890;SDS011;9071;48.220;14.480;2023-08-08T06:14:44;6.87;;;5.13;;
17890;SDS011;9071;48.220;14.480;2023-08-08T06:19:46;10.93;;;6.07;;
17890;SDS011;9071;48.220;14.480;2023-08-08T06:24:50;7.40;;;5.07;;
17890;SDS011;9071;48.220;14.480;2023-08-08T06:29:53;18.50;;;8.70;;
17890;SDS011;9071;48.220;14.480;2023-08-08T06:34:56;17.37;;;6.07;;
17890;SDS011;9071;48.220;14.480;2023-08-08T06:39:58;14.60;;;4.93;;
17890;SDS011;9071;48.220;14.480;2023-08-08T06:45:02;10.17;;;4.10;;
17890;SDS011;9071;48.220;14.480;2023-08-08T06:50:05;6.72;;;3.78;;
17890;SDS011;9071;48.220;14.480;2023-08-08T06:55:09;6.75;;;3.78;;
17890;SDS011;9071;48.220;14.480;2023-08-08T07:00:13;4.10;;;3.00;;
17890;SDS011;9071;48.220;14.480;2023-08-08T07:05:16;4.35;;;3.13;;
17890;SDS011;9071;48.220;14.480;2023-08-08T07:10:18;7.28;;;3.25;;
17890;SDS011;9071;48.220;14.480;2023-08-08T07:15:22;3.60;;;2.90;;
17890;SDS011;9071;48.220;14.480;2023-08-08T07:20:24;6.00;;;2.97;;
17890;SDS011;9071;48.220;14.480;2023-08-08T07:25:26;6.13;;;2.88;;
17890;SDS011;9071;48.220;14.480;2023-08-08T07:30:30;3.22;;;1.90;;
17890;SDS011;9071;48.220;14.480;2023-08-08T07:35:32;2.83;;;1.80;;
17890;SDS011;9071;48.220;14.480;2023-08-08T07:40:34;2.72;;;2.00;;
17890;SDS011;9071;48.220;14.480;2023-08-08T07:45:39;2.53;;;1.60;;
17890;SDS011;9071;48.220;14.480;2023-08-08T07:50:41;2.25;;;1.75;;
17890;SDS011;9071;48.220;14.480;2023-08-08T07:55:43;2.35;;;1.45;;
17890;SDS011;9071;48.220;14.480;2023-08-08T08:00:47;3.92;;;1.58;;
17890;SDS011;9071;48.220;14.480;2023-08-08T08:05:49;3.25;;;1.90;;
17890;SDS011;9071;48.220;14.480;2023-08-08T08:10:52;2.40;;;1.67;;
17890;SDS011;9071;48.220;14.480;2023-08-08T08:15:55;2.17;;;1.52;;
17890;SDS011;9071;48.220;14.480;2023-08-08T08:20:58;1.95;;;1.50;;
17890;SDS011;9071;48.220;14.480;2023-08-08T08:26:00;2.95;;;1.70;;
17890;SDS011;9071;48.220;14.480;2023-08-08T08:31:05;2.03;;;1.30;;
17890;SDS011;9071;48.220;14.480;2023-08-08T08:36:08;2.20;;;1.50;;
17890;SDS011;9071;48.220;14.480;2023-08-08T08:41:10;3.92;;;2.10;;
17890;SDS011;9071;48.220;14.480;2023-08-08T08:46:16;2.83;;;1.60;;
17890;SDS011;9071;48.220;14.480;2023-08-08T08:51:21;2.47;;;1.80;;
17890;SDS011;9071;48.220;14.480;2023-08-08T08:56:24;4.88;;;1.58;;
17890;SDS011;9071;48.220;14.480;2023-08-08T09:01:28;2.85;;;2.17;;
17890;SDS011;9071;48.220;14.480;2023-08-08T09:06:30;3.33;;;1.75;;
17890;SDS011;9071;48.220;14.480;2023-08-08T09:11:33;4.15;;;2.13;;
17890;SDS011;9071;48.220;14.480;2023-08-08T09:16:37;3.67;;;2.33;;
17890;SDS011;9071;48.220;14.480;2023-08-08T09:21:40;5.57;;;2.53;;
17890;SDS011;9071;48.220;14.480;2023-08-08T09:26:42;4.15;;;1.98;;
17890;SDS011;9071;48.220;14.480;2023-08-08T09:31:47;4.35;;;1.67;;
17890;SDS011;9071;48.220;14.480;2023-08-08T09:36:49;2.25;;;1.50;;
17890;SDS011;9071;48.220;14.480;2023-08-08T09:41:51;3.13;;;1.63;;
17890;SDS011;9071;48.220;14.480;2023-08-08T09:46:55;4.40;;;1.73;;
17890;SDS011;9071;48.220;14.480;2023-08-08T09:51:57;3.13;;;1.58;;
17890;SDS011;9071;48.220;14.480;2023-08-08T09:57:00;2.65;;;1.50;;
17890;SDS011;9071;48.220;14.480;2023-08-08T10:02:04;2.05;;;1.58;;
17890;SDS011;9071;48.220;14.480;2023-08-08T10:07:06;2.72;;;1.80;;
17890;SDS011;9071;48.220;14.480;2023-08-08T10:12:09;4.80;;;1.45;;
17890;SDS011;9071;48.220;14.480;2023-08-08T10:17:14;3.70;;;1.90;;
17890;SDS011;9071;48.220;14.480;2023-08-08T10:22:19;2.22;;;1.42;;
17890;SDS011;9071;48.220;14.480;2023-08-08T10:27:30;2.58;;;1.30;;
17890;SDS011;9071;48.220;14.480;2023-08-08T10:32:41;1.45;;;1.17;;
17890;SDS011;9071;48.220;14.480;2023-08-08T10:37:55;1.85;;;1.20;;
17890;SDS011;9071;48.220;14.480;2023-08-08T10:42:59;1.52;;;1.15;;
17890;SDS011;9071;48.220;14.480;2023-08-08T10:48:12;2.67;;;1.35;;
17890;SDS011;9071;48.220;14.480;2023-08-08T10:53:16;2.30;;;1.48;;
17890;SDS011;9071;48.220;14.480;2023-08-08T10:58:18;3.72;;;1.25;;
17890;SDS011;9071;48.220;14.480;2023-08-08T11:03:22;1.20;;;1.10;;
17890;SDS011;9071;48.220;14.480;2023-08-08T11:08:24;4.07;;;1.30;;
17890;SDS011;9071;48.220;14.480;2023-08-08T11:13:26;2.42;;;1.10;;
17890;SDS011;9071;48.220;14.480;2023-08-08T11:18:30;1.85;;;1.42;;
17890;SDS011;9071;48.220;14.480;2023-08-08T11:23:32;2.05;;;1.20;;
17890;SDS011;9071;48.220;14.480;2023-08-08T11:28:38;3.17;;;1.30;;
17890;SDS011;9071;48.220;14.480;2023-08-08T11:33:41;1.30;;;1.20;;
17890;SDS011;9071;48.220;14.480;2023-08-08T11:38:44;1.38;;;1.25;;
17890;SDS011;9071;48.220;14.480;2023-08-08T11:43:46;3.20;;;1.00;;
17890;SDS011;9071;48.220;14.480;2023-08-08T11:48:50;1.35;;;1.05;;
17890;SDS011;9071;48.220;14.480;2023-08-08T11:53:52;1.65;;;1.20;;
17890;SDS011;9071;48.220;14.480;2023-08-08T11:58:55;1.20;;;1.02;;
17890;SDS011;9071;48.220;14.480;2023-08-08T12:03:58;1.60;;;1.15;;
17890;SDS011;9071;48.220;14.480;2023-08-08T12:09:06;2.42;;;1.27;;
17890;SDS011;9071;48.220;14.480;2023-08-08T12:14:08;2.10;;;1.40;;
17890;SDS011;9071;48.220;14.480;2023-08-08T12:19:12;1.90;;;1.42;;
17890;SDS011;9071;48.220;14.480;2023-08-08T12:24:17;1.20;;;1.10;;
17890;SDS011;9071;48.220;14.480;2023-08-08T12:29:20;1.10;;;1.00;;
17890;SDS011;9071;48.220;14.480;2023-08-08T12:34:23;1.63;;;1.17;;
17890;SDS011;9071;48.220;14.480;2023-08-08T12:39:25;4.07;;;1.50;;
17890;SDS011;9071;48.220;14.480;2023-08-08T12:44:27;3.78;;;1.15;;
17890;SDS011;9071;48.220;14.480;2023-08-08T12:49:31;1.45;;;1.13;;
17890;SDS011;9071;48.220;14.480;2023-08-08T12:54:33;3.80;;;1.00;;
17890;SDS011;9071;48.220;14.480;2023-08-08T12:59:36;2.08;;;1.35;;
17890;SDS011;9071;48.220;14.480;2023-08-08T13:04:39;1.73;;;1.20;;
17890;SDS011;9071;48.220;14.480;2023-08-08T13:09:41;3.10;;;1.23;;
17890;SDS011;9071;48.220;14.480;2023-08-08T13:14:43;3.72;;;1.50;;
17890;SDS011;9071;48.220;14.480;2023-08-08T13:19:47;1.60;;;1.00;;
17890;SDS011;9071;48.220;14.480;2023-08-08T13:24:49;1.30;;;0.93;;
17890;SDS011;9071;48.220;14.480;2023-08-08T13:29:51;5.22;;;1.40;;
17890;SDS011;9071;48.220;14.480;2023-08-08T13:34:54;1.48;;;1.13;;
17890;SDS011;9071;48.220;14.480;2023-08-08T13:39:56;1.48;;;1.27;;
17890;SDS011;9071;48.220;14.480;2023-08-08T13:44:59;2.10;;;1.10;;
17890;SDS011;9071;48.220;14.480;2023-08-08T13:50:02;2.47;;;1.20;;
17890;SDS011;9071;48.220;14.480;2023-08-08T13:55:05;3.33;;;1.63;;
17890;SDS011;9071;48.220;14.480;2023-08-08T14:00:08;1.13;;;1.00;;
17890;SDS011;9071;48.220;14.480;2023-08-08T14:05:14;3.70;;;1.40;;
17890;SDS011;9071;48.220;14.480;2023-08-08T14:10:16;2.03;;;1.35;;
17890;SDS011;9071;48.220;14.480;2023-08-08T14:15:18;1.92;;;1.05;;
17890;SDS011;9071;48.220;14.480;2023-08-08T14:20:22;1.63;;;1.10;;
17890;SDS011;9071;48.220;14.480;2023-08-08T14:25:24;1.15;;;1.00;;
17890;SDS011;9071;48.220;14.480;2023-08-08T14:30:26;2.15;;;1.30;;
17890;SDS011;9071;48.220;14.480;2023-08-08T14:35:29;2.90;;;1.10;;
17890;SDS011;9071;48.220;14.480;2023-08-08T14:40:31;1.30;;;1.20;;
17890;SDS011;9071;48.220;14.480;2023-08-08T14:45:34;2.38;;;1.00;;
17890;SDS011;9071;48.220;14.480;2023-08-08T14:50:39;3.22;;;1.70;;
17890;SDS011;9071;48.220;14.480;2023-08-08T14:55:41;1.42;;;1.00;;
17890;SDS011;9071;48.220;14.480;2023-08-08T15:00:43;2.92;;;1.27;;
17890;SDS011;9071;48.220;14.480;2023-08-08T15:05:46;2.83;;;1.60;;
17890;SDS011;9071;48.220;14.480;2023-08-08T15:10:48;1.80;;;1.20;;
17890;SDS011;9071;48.220;14.480;2023-08-08T15:15:50;3.85;;;1.30;;
17890;SDS011;9071;48.220;14.480;2023-08-08T15:20:54;2.08;;;1.30;;
17890;SDS011;9071;48.220;14.480;2023-08-08T15:25:57;2.65;;;1.30;;
17890;SDS011;9071;48.220;14.480;2023-08-08T15:31:00;2.80;;;1.30;;
17890;SDS011;9071;48.220;14.480;2023-08-08T15:36:03;2.72;;;1.35;;
17890;SDS011;9071;48.220;14.480;2023-08-08T15:41:06;1.67;;;1.42;;
17890;SDS011;9071;48.220;14.480;2023-08-08T15:46:08;2.55;;;1.50;;
17890;SDS011;9071;48.220;14.480;2023-08-08T15:51:11;2.08;;;1.33;;
17890;SDS011;9071;48.220;14.480;2023-08-08T15:56:13;5.50;;;1.90;;
17890;SDS011;9071;48.220;14.480;2023-08-08T16:01:16;4.35;;;2.45;;
17890;SDS011;9071;48.220;14.480;2023-08-08T16:06:19;3.63;;;1.77;;
17890;SDS011;9071;48.220;14.480;2023-08-08T16:11:21;2.97;;;1.50;;
17890;SDS011;9071;48.220;14.480;2023-08-08T16:16:23;2.03;;;1.40;;
17890;SDS011;9071;48.220;14.480;2023-08-08T16:21:27;1.73;;;1.25;;
17890;SDS011;9071;48.220;14.480;2023-08-08T16:26:29;2.28;;;1.25;;
17890;SDS011;9071;48.220;14.480;2023-08-08T16:31:31;4.07;;;1.33;;
17890;SDS011;9071;48.220;14.480;2023-08-08T16:36:34;2.58;;;1.42;;
17890;SDS011;9071;48.220;14.480;2023-08-08T16:41:36;1.67;;;1.40;;
17890;SDS011;9071;48.220;14.480;2023-08-08T16:46:38;3.13;;;1.40;;
17890;SDS011;9071;48.220;14.480;2023-08-08T16:51:42;3.10;;;1.63;;
17890;SDS011;9071;48.220;14.480;2023-08-08T16:56:44;2.30;;;1.20;;
17890;SDS011;9071;48.220;14.480;2023-08-08T17:01:46;2.67;;;1.20;;
17890;SDS011;9071;48.220;14.480;2023-08-08T17:06:50;5.53;;;1.77;;
17890;SDS011;9071;48.220;14.480;2023-08-08T17:11:53;3.00;;;1.85;;
17890;SDS011;9071;48.220;14.480;2023-08-08T17:16:56;2.35;;;1.70;;
17890;SDS011;9071;48.220;14.480;2023-08-08T17:22:00;3.03;;;1.60;;
17890;SDS011;9071;48.220;14.480;2023-08-08T17:27:02;3.63;;;1.50;;
17890;SDS011;9071;48.220;14.480;2023-08-08T17:32:05;4.78;;;1.67;;
17890;SDS011;9071;48.220;14.480;2023-08-08T17:37:08;4.07;;;1.55;;
17890;SDS011;9071;48.220;14.480;2023-08-08T17:42:10;3.03;;;1.90;;
17890;SDS011;9071;48.220;14.480;2023-08-08T17:47:12;2.45;;;1.40;;
17890;SDS011;9071;48.220;14.480;2023-08-08T17:52:18;2.40;;;1.67;;
17890;SDS011;9071;48.220;14.480;2023-08-08T17:57:20;2.72;;;1.52;;
17890;SDS011;9071;48.220;14.480;2023-08-08T18:02:23;3.40;;;1.85;;
17890;SDS011;9071;48.220;14.480;2023-08-08T18:07:27;2.03;;;1.60;;
17890;SDS011;9071;48.220;14.480;2023-08-08T18:12:29;2.10;;;1.52;;
17890;SDS011;9071;48.220;14.480;2023-08-08T18:17:32;3.35;;;1.60;;
17890;SDS011;9071;48.220;14.480;2023-08-08T18:22:35;2.25;;;1.40;;
17890;SDS011;9071;48.220;14.480;2023-08-08T18:27:37;1.98;;;1.60;;
17890;SDS011;9071;48.220;14.480;2023-08-08T18:32:39;2.70;;;1.75;;
17890;SDS011;9071;48.220;14.480;2023-08-08T18:37:43;4.38;;;2.42;;
17890;SDS011;9071;48.220;14.480;2023-08-08T18:42:45;5.05;;;2.20;;
17890;SDS011;9071;48.220;14.480;2023-08-08T18:47:47;9.05;;;2.72;;
17890;SDS011;9071;48.220;14.480;2023-08-08T18:52:50;4.25;;;2.40;;
17890;SDS011;9071;48.220;14.480;2023-08-08T18:57:52;6.45;;;2.50;;
17890;SDS011;9071;48.220;14.480;2023-08-08T19:02:54;3.63;;;2.60;;
17890;SDS011;9071;48.220;14.480;2023-08-08T19:07:58;5.57;;;2.58;;
17890;SDS011;9071;48.220;14.480;2023-08-08T19:13:00;5.30;;;2.72;;
17890;SDS011;9071;48.220;14.480;2023-08-08T19:18:02;7.88;;;2.83;;
17890;SDS011;9071;48.220;14.480;2023-08-08T19:23:06;3.03;;;2.38;;
17890;SDS011;9071;48.220;14.480;2023-08-08T19:28:08;4.97;;;2.70;;
17890;SDS011;9071;48.220;14.480;2023-08-08T19:33:10;7.45;;;3.03;;
17890;SDS011;9071;48.220;14.480;2023-08-08T19:38:14;4.38;;;2.72;;
17890;SDS011;9071;48.220;14.480;2023-08-08T19:43:16;6.47;;;3.50;;
17890;SDS011;9071;48.220;14.480;2023-08-08T19:48:19;5.65;;;3.40;;
17890;SDS011;9071;48.220;14.480;2023-08-08T19:53:23;5.07;;;2.80;;
17890;SDS011;9071;48.220;14.480;2023-08-08T19:58:25;3.65;;;2.80;;
17890;SDS011;9071;48.220;14.480;2023-08-08T20:03:27;8.27;;;3.25;;
17890;SDS011;9071;48.220;14.480;2023-08-08T20:08:31;5.65;;;3.10;;
17890;SDS011;9071;48.220;14.480;2023-08-08T20:13:33;5.75;;;3.78;;
17890;SDS011;9071;48.220;14.480;2023-08-08T20:18:35;7.15;;;3.80;;
17890;SDS011;9071;48.220;14.480;2023-08-08T20:23:38;7.53;;;3.92;;
17890;SDS011;9071;48.220;14.480;2023-08-08T20:28:40;5.55;;;3.33;;
17890;SDS011;9071;48.220;14.480;2023-08-08T20:33:43;6.25;;;2.92;;
17890;SDS011;9071;48.220;14.480;2023-08-08T20:38:46;7.55;;;2.88;;
17890;SDS011;9071;48.220;14.480;2023-08-08T20:43:48;5.18;;;3.30;;
17890;SDS011;9071;48.220;14.480;2023-08-08T20:48:50;4.70;;;3.20;;
17890;SDS011;9071;48.220;14.480;2023-08-08T20:53:55;4.88;;;3.08;;
17890;SDS011;9071;48.220;14.480;2023-08-08T20:58:57;5.30;;;3.63;;
17890;SDS011;9071;48.220;14.480;2023-08-08T21:03:59;4.13;;;3.10;;
17890;SDS011;9071;48.220;14.480;2023-08-08T21:09:02;4.30;;;3.03;;
17890;SDS011;9071;48.220;14.480;2023-08-08T21:14:06;4.38;;;3.10;;
17890;SDS011;9071;48.220;14.480;2023-08-08T21:19:08;5.43;;;3.70;;
17890;SDS011;9071;48.220;14.480;2023-08-08T21:24:11;5.33;;;3.13;;
17890;SDS011;9071;48.220;14.480;2023-08-08T21:29:13;4.57;;;3.20;;
17890;SDS011;9071;48.220;14.480;2023-08-08T21:34:15;5.53;;;3.20;;
17890;SDS011;9071;48.220;14.480;2023-08-08T21:39:19;5.27;;;2.90;;
17890;SDS011;9071;48.220;14.480;2023-08-08T21:44:21;7.47;;;3.87;;
17890;SDS011;9071;48.220;14.480;2023-08-08T21:49:23;5.57;;;3.77;;
17890;SDS011;9071;48.220;14.480;2023-08-08T21:54:29;4.43;;;3.13;;
17890;SDS011;9071;48.220;14.480;2023-08-08T21:59:31;4.73;;;3.17;;
17890;SDS011;9071;48.220;14.480;2023-08-08T22:04:33;5.33;;;3.10;;
17890;SDS011;9071;48.220;14.480;2023-08-08T22:09:37;7.73;;;3.07;;
17890;SDS011;9071;48.220;14.480;2023-08-08T22:14:40;4.00;;;2.87;;
17890;SDS011;9071;48.220;14.480;2023-08-08T22:19:42;4.33;;;2.70;;
17890;SDS011;9071;48.220;14.480;2023-08-08T22:24:45;3.30;;;2.40;;
17890;SDS011;9071;48.220;14.480;2023-08-08T22:29:47;3.13;;;2.33;;
17890;SDS011;9071;48.220;14.480;2023-08-08T22:34:49;4.40;;;3.10;;
17890;SDS011;9071;48.220;14.480;2023-08-08T22:39:53;5.00;;;2.67;;
17890;SDS011;9071;48.220;14.480;2023-08-08T22:44:55;3.33;;;2.63;;
17890;SDS011;9071;48.220;14.480;2023-08-08T22:49:57;3.80;;;2.50;;
17890;SDS011;9071;48.220;14.480;2023-08-08T22:55:01;4.83;;;2.60;;
17890;SDS011;9071;48.220;14.480;2023-08-08T23:00:05;5.90;;;2.40;;
17890;SDS011;9071;48.220;14.480;2023-08-08T23:05:08;4.57;;;2.80;;
17890;SDS011;9071;48.220;14.480;2023-08-08T23:10:11;5.22;;;2.42;;
17890;SDS011;9071;48.220;14.480;2023-08-08T23:15:13;3.83;;;2.40;;
17890;SDS011;9071;48.220;14.480;2023-08-08T23:20:15;3.87;;;2.63;;
17890;SDS011;9071;48.220;14.480;2023-08-08T23:25:19;3.47;;;2.57;;
17890;SDS011;9071;48.220;14.480;2023-08-08T23:30:23;3.63;;;2.60;;
17890;SDS011;9071;48.220;14.480;2023-08-08T23:35:25;4.77;;;2.50;;
17890;SDS011;9071;48.220;14.480;2023-08-08T23:40:28;3.03;;;2.63;;
17890;SDS011;9071;48.220;14.480;2023-08-08T23:45:30;4.43;;;3.40;;
17890;SDS011;9071;48.220;14.480;2023-08-08T23:50:32;3.92;;;2.60;;
17890;SDS011;9071;48.220;14.480;2023-08-08T23:55:36;3.90;;;2.83;;
